createdAt,value
2018-03-01T00:00:08.300Z,75.92
2018-03-01T00:01:08.314Z,76.02
2018-03-01T00:02:08.347Z,76.40
2018-03-01T00:03:08.384Z,76.11
2018-03-01T00:04:08.426Z,75.83
2018-03-01T00:05:08.473Z,75.64
2018-03-01T00:06:08.491Z,75.36
2018-03-01T00:07:08.526Z,75.36
2018-03-01T00:08:08.559Z,75.64
2018-03-01T00:09:08.597Z,75.54
2018-03-01T00:10:08.646Z,76.02
2018-03-01T00:11:08.668Z,75.83
2018-03-01T00:12:08.703Z,75.92
2018-03-01T00:13:08.741Z,76.02
2018-03-01T00:14:08.774Z,76.02
2018-03-01T00:15:08.825Z,75.64
2018-03-01T00:16:09.244Z,76.02
2018-03-01T00:17:08.877Z,76.02
2018-03-01T00:18:08.912Z,75.83
2018-03-01T00:19:08.950Z,75.64
2018-03-01T00:20:08.986Z,75.45
2018-03-01T00:21:09.034Z,75.64
2018-03-01T00:22:09.054Z,76.11
2018-03-01T00:23:09.088Z,75.92
2018-03-01T00:24:09.126Z,75.92
2018-03-01T00:25:09.159Z,76.11
2018-03-01T00:26:09.209Z,75.92
2018-03-01T00:27:09.229Z,76.30
2018-03-01T00:28:09.268Z,76.30
2018-03-01T00:29:09.302Z,76.40
2018-03-01T00:30:09.335Z,76.68
2018-03-01T00:31:09.389Z,76.11
2018-03-01T00:32:09.407Z,76.40
2018-03-01T00:33:09.441Z,76.58
2018-03-01T00:34:09.475Z,76.30
2018-03-01T00:35:09.512Z,76.30
2018-03-01T00:36:09.561Z,76.40
2018-03-01T00:37:09.598Z,76.49
2018-03-01T00:38:09.618Z,76.40
2018-03-01T00:39:09.652Z,76.21
2018-03-01T00:40:09.686Z,76.30
2018-03-01T00:41:09.726Z,76.58
2018-03-01T00:42:09.932Z,76.30
2018-03-01T00:43:09.791Z,76.21
2018-03-01T00:44:09.826Z,75.92
2018-03-01T00:45:09.862Z,76.40
2018-03-01T00:46:09.897Z,76.30
2018-03-01T00:47:09.967Z,76.30
2018-03-01T00:48:09.970Z,76.40
2018-03-01T00:49:10.003Z,76.58
2018-03-01T00:50:10.037Z,76.77
2018-03-01T00:51:10.073Z,76.49
2018-03-01T00:52:10.127Z,76.68
2018-03-01T00:53:10.159Z,76.87
2018-03-01T00:54:10.185Z,76.11
2018-03-01T00:55:10.211Z,76.11
2018-03-01T00:56:10.248Z,76.68
2018-03-01T00:57:10.281Z,76.87
2018-03-01T00:58:10.333Z,76.87
2018-03-01T00:59:10.372Z,76.58
2018-03-01T01:00:10.387Z,76.77
2018-03-01T01:01:10.423Z,76.49
2018-03-01T01:02:10.456Z,76.77
2018-03-01T01:03:10.492Z,76.58
2018-03-01T01:04:10.542Z,76.96
2018-03-01T01:05:10.564Z,76.30
2018-03-01T01:06:10.598Z,76.58
2018-03-01T01:07:10.633Z,76.96
2018-03-01T01:08:10.670Z,77.06
2018-03-01T01:09:10.722Z,77.44
2018-03-01T01:10:10.754Z,76.87
2018-03-01T01:11:10.773Z,76.96
2018-03-01T01:12:10.808Z,76.96
2018-03-01T01:13:10.843Z,76.96
2018-03-01T01:14:10.884Z,76.96
2018-03-01T01:15:10.928Z,76.87
2018-03-01T01:16:10.947Z,76.68
2018-03-01T01:17:10.982Z,76.58
2018-03-01T01:18:11.018Z,76.87
2018-03-01T01:19:11.053Z,77.25
2018-03-01T01:20:11.106Z,77.34
2018-03-01T01:21:11.136Z,77.25
2018-03-01T01:22:11.156Z,77.44
2018-03-01T01:23:11.193Z,77.34
2018-03-01T01:24:11.228Z,77.44
2018-03-01T01:25:11.281Z,78.00
2018-03-01T01:26:11.315Z,78.28
2018-03-01T01:27:11.332Z,77.72
2018-03-01T01:28:11.375Z,78.56
2018-03-01T01:29:11.402Z,78.85
2018-03-01T01:30:11.438Z,78.56
2018-03-01T01:31:11.498Z,78.19
2018-03-01T01:32:11.513Z,78.00
2018-03-01T01:33:11.543Z,78.09
2018-03-01T01:34:11.579Z,78.09
2018-03-01T01:35:11.642Z,78.56
2018-03-01T01:36:11.651Z,78.75
2018-03-01T01:37:11.699Z,78.28
2018-03-01T01:38:11.718Z,77.44
2018-03-01T01:39:11.756Z,77.72
2018-03-01T01:40:11.807Z,77.81
2018-03-01T01:41:11.824Z,78.56
2018-03-01T01:42:11.864Z,78.47
2018-03-01T01:43:11.899Z,78.56
2018-03-01T01:44:11.930Z,78.00
2018-03-01T01:45:11.988Z,78.56
2018-03-01T01:46:12.013Z,78.66
2018-03-01T01:47:12.036Z,79.32
2018-03-01T01:48:12.074Z,79.03
2018-03-01T01:49:12.112Z,78.66
2018-03-01T01:50:12.159Z,78.85
2018-03-01T01:51:12.178Z,78.56
2018-03-01T01:52:12.213Z,79.22
2018-03-01T01:53:12.301Z,78.75
2018-03-01T01:54:12.287Z,78.00
2018-03-01T01:55:12.321Z,78.19
2018-03-01T01:56:12.365Z,78.00
2018-03-01T01:57:12.390Z,78.56
2018-03-01T01:58:12.441Z,78.00
2018-03-01T01:59:12.463Z,78.85
2018-03-01T02:00:12.496Z,79.41
2018-03-01T02:01:12.531Z,79.32
2018-03-01T02:02:12.569Z,79.79
2018-03-01T02:03:12.617Z,79.88
2018-03-01T02:04:12.642Z,79.79
2018-03-01T02:05:12.672Z,78.94
2018-03-01T02:06:12.708Z,79.03
2018-03-01T02:07:12.761Z,79.41
2018-03-01T02:08:12.780Z,79.50
2018-03-01T02:09:12.818Z,78.94
2018-03-01T02:10:12.851Z,78.56
2018-03-01T02:11:12.888Z,78.94
2018-03-01T02:12:12.939Z,79.03
2018-03-01T02:13:12.956Z,79.22
2018-03-01T02:14:13.008Z,78.94
2018-03-01T02:15:13.027Z,78.94
2018-03-01T02:16:13.062Z,79.22
2018-03-01T02:17:13.098Z,79.22
2018-03-01T02:18:13.132Z,79.32
2018-03-01T02:19:13.188Z,78.75
2018-03-01T02:20:13.205Z,78.56
2018-03-01T02:21:13.240Z,78.28
2018-03-01T02:22:13.278Z,78.00
2018-03-01T02:23:13.313Z,78.19
2018-03-01T02:24:13.367Z,78.75
2018-03-01T02:25:13.718Z,78.94
2018-03-01T02:26:13.425Z,79.03
2018-03-01T02:27:13.450Z,78.47
2018-03-01T02:28:13.490Z,78.66
2018-03-01T02:29:13.529Z,79.32
2018-03-01T02:30:13.559Z,79.60
2018-03-01T02:31:13.618Z,79.88
2018-03-01T02:32:13.627Z,80.07
2018-03-01T02:33:13.668Z,79.88
2018-03-01T02:34:13.700Z,79.88
2018-03-01T02:35:13.734Z,79.98
2018-03-01T02:36:13.788Z,79.41
2018-03-01T02:37:13.806Z,79.22
2018-03-01T02:38:13.839Z,79.41
2018-03-01T02:39:13.876Z,79.41
2018-03-01T02:40:13.930Z,79.41
2018-03-01T02:41:13.947Z,78.75
2018-03-01T02:42:13.983Z,78.75
2018-03-01T02:43:14.017Z,79.41
2018-03-01T02:44:14.052Z,79.13
2018-03-01T02:45:14.103Z,79.13
2018-03-01T02:46:14.137Z,78.75
2018-03-01T02:47:14.161Z,78.47
2018-03-01T02:48:14.194Z,78.66
2018-03-01T02:49:14.233Z,79.32
2018-03-01T02:50:14.264Z,78.75
2018-03-01T02:51:14.314Z,78.94
2018-03-01T02:52:14.340Z,78.19
2018-03-01T02:53:14.368Z,78.38
2018-03-01T02:54:14.441Z,78.75
2018-03-01T02:55:14.440Z,79.32
2018-03-01T02:56:14.493Z,79.13
2018-03-01T02:57:14.509Z,79.13
2018-03-01T02:58:14.545Z,79.22
2018-03-01T02:59:14.581Z,79.13
2018-03-01T03:00:14.615Z,79.32
2018-03-01T03:01:14.670Z,79.69
2018-03-01T03:02:14.686Z,79.69
2018-03-01T03:03:14.722Z,79.13
2018-03-01T03:04:14.756Z,79.32
2018-03-01T03:05:14.793Z,79.50
2018-03-01T03:06:14.841Z,79.03
2018-03-01T03:07:14.858Z,79.32
2018-03-01T03:08:14.902Z,79.50
2018-03-01T03:09:14.945Z,79.88
2018-03-01T03:10:14.963Z,79.41
2018-03-01T03:11:14.999Z,79.32
2018-03-01T03:12:15.056Z,79.41
2018-03-01T03:13:15.069Z,79.69
2018-03-01T03:14:15.105Z,79.79
2018-03-01T03:15:15.138Z,79.60
2018-03-01T03:16:15.175Z,79.69
2018-03-01T03:17:15.229Z,79.79
2018-03-01T03:18:15.247Z,79.60
2018-03-01T03:19:15.279Z,79.41
2018-03-01T03:20:15.315Z,79.41
2018-03-01T03:21:15.350Z,79.60
2018-03-01T03:22:15.401Z,79.22
2018-03-01T03:23:15.420Z,79.69
2018-03-01T03:24:15.459Z,79.88
2018-03-01T03:25:15.491Z,79.41
2018-03-01T03:26:15.523Z,79.50
2018-03-01T03:27:15.575Z,79.32
2018-03-01T03:28:15.615Z,79.79
2018-03-01T03:29:15.631Z,79.22
2018-03-01T03:30:15.675Z,79.13
2018-03-01T03:31:15.702Z,78.94
2018-03-01T03:32:15.733Z,79.41
2018-03-01T03:33:15.789Z,79.03
2018-03-01T03:34:15.802Z,78.66
2018-03-01T03:35:15.839Z,79.13
2018-03-01T03:36:15.876Z,79.79
2018-03-01T03:37:15.909Z,79.32
2018-03-01T03:38:15.959Z,78.85
2018-03-01T03:39:15.993Z,79.41
2018-03-01T03:40:16.017Z,79.69
2018-03-01T03:41:16.050Z,79.88
2018-03-01T03:42:16.082Z,80.36
2018-03-01T03:43:16.120Z,79.88
2018-03-01T03:44:16.174Z,79.22
2018-03-01T03:45:16.188Z,79.22
2018-03-01T03:46:16.225Z,79.13
2018-03-01T03:47:16.262Z,78.85
2018-03-01T03:48:16.296Z,78.85
2018-03-01T03:49:16.346Z,79.41
2018-03-01T03:50:16.363Z,79.22
2018-03-01T03:51:16.403Z,79.22
2018-03-01T03:52:16.434Z,78.94
2018-03-01T03:53:16.469Z,79.03
2018-03-01T03:54:16.526Z,78.94
2018-03-01T03:55:16.541Z,78.85
2018-03-01T03:56:16.575Z,78.85
2018-03-01T03:57:16.610Z,79.13
2018-03-01T03:58:16.650Z,79.13
2018-03-01T03:59:16.696Z,79.13
2018-03-01T04:00:16.718Z,79.13
2018-03-01T04:01:16.752Z,79.50
2018-03-01T04:02:16.788Z,78.94
2018-03-01T04:03:16.817Z,79.32
2018-03-01T04:04:16.869Z,79.50
2018-03-01T04:05:16.893Z,79.41
2018-03-01T04:06:16.924Z,79.03
2018-03-01T04:07:16.989Z,79.41
2018-03-01T04:08:16.992Z,79.69
2018-03-01T04:09:17.028Z,79.79
2018-03-01T04:10:17.063Z,79.22
2018-03-01T04:11:17.099Z,79.13
2018-03-01T04:12:17.150Z,79.50
2018-03-01T04:13:17.176Z,79.32
2018-03-01T04:14:17.203Z,79.41
2018-03-01T04:15:17.242Z,79.13
2018-03-01T04:16:17.274Z,80.45
2018-03-01T04:17:17.338Z,80.26
2018-03-01T04:18:17.349Z,80.07
2018-03-01T04:19:17.378Z,79.88
2018-03-01T04:20:17.420Z,79.22
2018-03-01T04:21:17.451Z,79.69
2018-03-01T04:22:17.506Z,79.22
2018-03-01T04:23:17.537Z,79.88
2018-03-01T04:24:17.554Z,80.36
2018-03-01T04:25:17.588Z,80.36
2018-03-01T04:26:17.626Z,80.26
2018-03-01T04:27:17.674Z,79.69
2018-03-01T04:28:17.713Z,79.60
2018-03-01T04:29:17.730Z,79.98
2018-03-01T04:30:17.765Z,80.26
2018-03-01T04:31:17.800Z,79.88
2018-03-01T04:32:18.361Z,79.98
2018-03-01T04:33:17.894Z,80.73
2018-03-01T04:34:17.904Z,80.26
2018-03-01T04:35:17.939Z,79.60
2018-03-01T04:36:17.976Z,79.50
2018-03-01T04:37:18.008Z,79.88
2018-03-01T04:38:18.065Z,79.13
2018-03-01T04:39:18.080Z,79.22
2018-03-01T04:40:18.116Z,79.79
2018-03-01T04:41:18.156Z,79.98
2018-03-01T04:42:18.187Z,80.45
2018-03-01T04:43:18.236Z,80.45
2018-03-01T04:44:18.272Z,80.17
2018-03-01T04:45:18.296Z,80.26
2018-03-01T04:46:18.334Z,79.98
2018-03-01T04:47:18.362Z,79.41
2018-03-01T04:48:18.418Z,79.60
2018-03-01T04:49:18.433Z,79.22
2018-03-01T04:50:18.493Z,79.41
2018-03-01T04:51:18.507Z,79.22
2018-03-01T04:52:18.541Z,79.88
2018-03-01T04:53:18.578Z,79.50
2018-03-01T04:54:18.624Z,79.88
2018-03-01T04:55:18.644Z,80.36
2018-03-01T04:56:18.677Z,79.79
2018-03-01T04:57:18.719Z,79.32
2018-03-01T04:58:18.749Z,79.13
2018-03-01T04:59:18.803Z,78.85
2018-03-01T05:00:18.823Z,79.69
2018-03-01T05:01:18.858Z,79.98
2018-03-01T05:02:18.892Z,79.98
2018-03-01T05:03:18.926Z,80.07
2018-03-01T05:04:18.975Z,79.41
2018-03-01T05:05:18.998Z,79.50
2018-03-01T05:06:19.030Z,78.94
2018-03-01T05:07:19.084Z,79.22
2018-03-01T05:08:19.105Z,78.94
2018-03-01T05:09:19.137Z,79.22
2018-03-01T05:10:19.186Z,79.60
2018-03-01T05:11:19.207Z,79.69
2018-03-01T05:12:19.262Z,80.45
2018-03-01T05:13:19.279Z,80.26
2018-03-01T05:14:19.312Z,79.32
2018-03-01T05:15:19.348Z,79.60
2018-03-01T05:16:19.399Z,79.41
2018-03-01T05:17:19.418Z,79.79
2018-03-01T05:18:19.456Z,79.69
2018-03-01T05:19:19.492Z,79.88
2018-03-01T05:20:19.523Z,80.54
2018-03-01T05:21:19.574Z,79.60
2018-03-01T05:22:19.615Z,79.41
2018-03-01T05:23:19.627Z,79.22
2018-03-01T05:24:19.663Z,78.85
2018-03-01T05:25:19.707Z,79.32
2018-03-01T05:26:19.733Z,79.88
2018-03-01T05:27:19.786Z,79.88
2018-03-01T05:28:19.803Z,80.26
2018-03-01T05:29:19.842Z,80.54
2018-03-01T05:30:19.878Z,79.69
2018-03-01T05:31:19.926Z,80.07
2018-03-01T05:32:19.982Z,79.79
2018-03-01T05:33:19.980Z,79.69
2018-03-01T05:34:20.009Z,79.50
2018-03-01T05:35:20.049Z,79.22
2018-03-01T05:36:20.086Z,79.98
2018-03-01T05:37:20.140Z,80.36
2018-03-01T05:38:20.156Z,80.26
2018-03-01T05:39:20.191Z,81.02
2018-03-01T05:40:20.233Z,80.64
2018-03-01T05:41:20.264Z,80.36
2018-03-01T05:42:20.308Z,79.50
2018-03-01T05:43:20.333Z,80.26
2018-03-01T05:44:20.391Z,80.83
2018-03-01T05:45:20.406Z,80.83
2018-03-01T05:46:20.440Z,80.64
2018-03-01T05:47:20.471Z,80.26
2018-03-01T05:48:20.509Z,80.26
2018-03-01T05:49:20.559Z,79.69
2018-03-01T05:50:20.583Z,80.26
2018-03-01T05:51:20.612Z,81.02
2018-03-01T05:52:20.650Z,81.87
2018-03-01T05:53:20.686Z,82.90
2018-03-01T05:54:21.652Z,83.09
2018-03-01T05:55:20.754Z,83.47
2018-03-01T05:56:20.790Z,83.18
2018-03-01T05:57:20.825Z,83.84
2018-03-01T05:58:20.859Z,84.32
2018-03-01T05:59:20.913Z,84.69
2018-03-01T06:00:21.648Z,84.69
2018-03-01T06:01:20.969Z,84.32
2018-03-01T06:02:21.020Z,84.41
2018-03-01T06:03:21.037Z,84.51
2018-03-01T06:04:21.094Z,85.64
2018-03-01T06:05:21.106Z,86.40
2018-03-01T06:06:21.142Z,86.68
2018-03-01T06:07:21.177Z,86.87
2018-03-01T06:08:21.214Z,87.43
2018-03-01T06:09:21.263Z,86.96
2018-03-01T06:10:21.301Z,86.21
2018-03-01T06:11:21.320Z,86.68
2018-03-01T06:12:21.351Z,86.58
2018-03-01T06:13:21.389Z,86.96
2018-03-01T06:14:21.424Z,87.43
2018-03-01T06:15:21.476Z,86.87
2018-03-01T06:16:21.495Z,87.71
2018-03-01T06:17:21.531Z,88.18
2018-03-01T06:18:21.564Z,88.37
2018-03-01T06:19:21.604Z,89.13
2018-03-01T06:20:21.657Z,89.32
2018-03-01T06:21:21.671Z,88.94
2018-03-01T06:22:21.704Z,89.03
2018-03-01T06:23:21.739Z,89.79
2018-03-01T06:24:21.792Z,89.79
2018-03-01T06:25:21.811Z,90.92
2018-03-01T06:26:21.861Z,90.17
2018-03-01T06:27:21.881Z,89.79
2018-03-01T06:28:21.917Z,89.98
2018-03-01T06:29:21.956Z,90.64
2018-03-01T06:30:21.989Z,90.64
2018-03-01T06:31:22.038Z,91.58
2018-03-01T06:32:22.066Z,91.49
2018-03-01T06:33:22.101Z,92.14
2018-03-01T06:34:22.136Z,92.90
2018-03-01T06:35:22.164Z,92.33
2018-03-01T06:36:22.226Z,92.52
2018-03-01T06:37:22.230Z,92.52
2018-03-01T06:38:22.286Z,92.71
2018-03-01T06:39:22.302Z,93.94
2018-03-01T06:40:22.336Z,95.26
2018-03-01T06:41:22.374Z,94.88
2018-03-01T06:42:22.405Z,94.32
2018-03-01T06:43:22.456Z,94.79
2018-03-01T06:44:22.475Z,94.60
2018-03-01T06:45:22.510Z,94.88
2018-03-01T06:46:22.548Z,94.69
2018-03-01T06:47:22.584Z,95.36
2018-03-01T06:48:22.633Z,95.17
2018-03-01T06:49:22.651Z,95.73
2018-03-01T06:50:22.685Z,96.01
2018-03-01T06:51:22.720Z,95.26
2018-03-01T06:52:22.761Z,95.17
2018-03-01T06:53:22.807Z,95.92
2018-03-01T06:54:22.831Z,96.58
2018-03-01T06:55:22.860Z,96.95
2018-03-01T06:56:22.896Z,96.86
2018-03-01T06:57:22.932Z,96.95
2018-03-01T06:58:22.980Z,97.05
2018-03-01T06:59:23.000Z,97.52
2018-03-01T07:00:23.034Z,96.77
2018-03-01T07:01:23.070Z,96.86
2018-03-01T07:02:23.122Z,96.77
2018-03-01T07:03:23.139Z,96.67
2018-03-01T07:04:23.177Z,96.11
2018-03-01T07:05:23.211Z,96.58
2018-03-01T07:06:23.245Z,96.86
2018-03-01T07:07:24.137Z,97.33
2018-03-01T07:08:23.315Z,98.28
2018-03-01T07:09:23.354Z,97.99
2018-03-01T07:10:23.388Z,98.18
2018-03-01T07:11:23.420Z,98.28
2018-03-01T07:12:23.482Z,98.28
2018-03-01T07:13:23.492Z,98.56
2018-03-01T07:14:23.530Z,97.99
2018-03-01T07:15:23.561Z,98.28
2018-03-01T07:16:23.610Z,98.18
2018-03-01T07:17:23.649Z,97.80
2018-03-01T07:18:23.668Z,96.67
2018-03-01T07:19:23.720Z,96.86
2018-03-01T07:20:23.751Z,97.52
2018-03-01T07:21:23.777Z,97.33
2018-03-01T07:22:23.810Z,98.28
2018-03-01T07:23:23.854Z,98.18
2018-03-01T07:24:23.898Z,98.37
2018-03-01T07:25:23.918Z,98.28
2018-03-01T07:26:23.950Z,98.18
2018-03-01T07:27:23.993Z,97.71
2018-03-01T07:28:24.021Z,97.90
2018-03-01T07:29:24.085Z,98.09
2018-03-01T07:30:24.092Z,97.61
2018-03-01T07:31:24.127Z,98.28
2018-03-01T07:32:24.163Z,97.80
2018-03-01T07:33:24.201Z,98.28
2018-03-01T07:34:24.263Z,97.99
2018-03-01T07:35:24.271Z,98.09
2018-03-01T07:36:24.304Z,98.65
2018-03-01T07:37:24.342Z,97.99
2018-03-01T07:38:24.381Z,97.61
2018-03-01T07:39:24.429Z,97.90
2018-03-01T07:40:24.449Z,98.56
2018-03-01T07:41:24.482Z,98.47
2018-03-01T07:42:24.521Z,99.13
2018-03-01T07:43:24.556Z,98.94
2018-03-01T07:44:24.621Z,98.47
2018-03-01T07:45:24.627Z,98.28
2018-03-01T07:46:24.681Z,97.43
2018-03-01T07:47:24.698Z,97.80
2018-03-01T07:48:24.733Z,97.43
2018-03-01T07:49:24.769Z,97.33
2018-03-01T07:50:24.804Z,97.52
2018-03-01T07:51:24.864Z,97.61
2018-03-01T07:52:24.876Z,97.33
2018-03-01T07:53:24.913Z,96.77
2018-03-01T07:54:24.948Z,97.05
2018-03-01T07:55:24.988Z,97.61
2018-03-01T07:56:25.037Z,97.61
2018-03-01T07:57:25.057Z,96.86
2018-03-01T07:58:25.094Z,96.25
2018-03-01T07:59:25.128Z,97.10
2018-03-01T08:00:25.166Z,96.53
2018-03-01T08:01:25.222Z,96.63
2018-03-01T08:02:25.238Z,95.40
2018-03-01T08:03:25.279Z,95.31
2018-03-01T08:04:25.311Z,94.84
2018-03-01T08:05:25.347Z,93.99
2018-03-01T08:06:25.408Z,95.21
2018-03-01T08:07:25.423Z,95.59
2018-03-01T08:08:25.462Z,93.80
2018-03-01T08:09:25.499Z,94.84
2018-03-01T08:10:25.534Z,94.55
2018-03-01T08:11:25.589Z,95.50
2018-03-01T08:12:25.605Z,96.15
2018-03-01T08:13:25.642Z,95.21
2018-03-01T08:14:25.680Z,93.99
2018-03-01T08:15:25.732Z,94.27
2018-03-01T08:16:25.755Z,94.84
2018-03-01T08:17:25.788Z,96.15
2018-03-01T08:18:25.828Z,95.40
2018-03-01T08:19:25.896Z,95.12
2018-03-01T08:20:25.915Z,95.40
2018-03-01T08:21:25.935Z,95.50
2018-03-01T08:22:25.990Z,95.59
2018-03-01T08:23:26.011Z,95.21
2018-03-01T08:24:26.045Z,94.08
2018-03-01T08:25:26.120Z,93.23
2018-03-01T08:26:26.120Z,92.95
2018-03-01T08:27:26.172Z,93.32
2018-03-01T08:28:26.194Z,93.13
2018-03-01T08:29:26.232Z,93.32
2018-03-01T08:30:26.270Z,93.23
2018-03-01T08:31:26.307Z,93.89
2018-03-01T08:32:26.367Z,94.65
2018-03-01T08:33:26.380Z,94.08
2018-03-01T08:34:26.427Z,93.61
2018-03-01T08:35:26.456Z,93.13
2018-03-01T08:36:26.492Z,93.04
2018-03-01T08:37:26.569Z,93.04
2018-03-01T08:38:26.567Z,92.85
2018-03-01T08:39:26.604Z,92.38
2018-03-01T08:40:26.643Z,91.72
2018-03-01T08:41:26.678Z,91.44
2018-03-01T08:42:26.731Z,92.10
2018-03-01T08:43:26.771Z,93.32
2018-03-01T08:44:26.791Z,93.04
2018-03-01T08:45:26.833Z,94.36
2018-03-01T08:46:26.871Z,93.89
2018-03-01T08:47:26.903Z,94.36
2018-03-01T08:48:26.957Z,93.99
2018-03-01T08:49:26.978Z,93.80
2018-03-01T08:50:27.016Z,94.08
2018-03-01T08:51:27.056Z,94.08
2018-03-01T08:52:27.094Z,93.80
2018-03-01T08:53:27.143Z,94.41
2018-03-01T08:54:27.180Z,94.08
2018-03-01T08:55:27.214Z,93.23
2018-03-01T08:56:27.240Z,93.28
2018-03-01T08:57:27.282Z,93.66
2018-03-01T08:58:27.315Z,92.61
2018-03-01T08:59:27.372Z,90.31
2018-03-01T09:00:27.405Z,89.74
2018-03-01T09:01:27.439Z,90.16
2018-03-01T09:02:27.465Z,91.82
2018-03-01T09:03:27.505Z,91.82
2018-03-01T09:04:27.560Z,92.57
2018-03-01T09:05:27.587Z,92.43
2018-03-01T09:06:27.615Z,91.82
2018-03-01T09:07:27.654Z,91.01
2018-03-01T09:08:27.692Z,90.73
2018-03-01T09:09:27.746Z,90.92
2018-03-01T09:10:27.767Z,90.54
2018-03-01T09:11:27.813Z,89.69
2018-03-01T09:12:27.844Z,89.31
2018-03-01T09:13:27.881Z,88.93
2018-03-01T09:14:27.935Z,90.07
2018-03-01T09:15:27.956Z,91.30
2018-03-01T09:16:28.010Z,90.26
2018-03-01T09:17:28.034Z,88.75
2018-03-01T09:18:28.078Z,88.37
2018-03-01T09:19:28.154Z,88.37
2018-03-01T09:20:28.161Z,88.46
2018-03-01T09:21:28.183Z,89.12
2018-03-01T09:22:28.239Z,88.46
2018-03-01T09:23:28.260Z,87.90
2018-03-01T09:24:28.296Z,88.28
2018-03-01T09:25:28.334Z,88.75
2018-03-01T09:26:28.379Z,87.66
2018-03-01T09:27:28.424Z,88.32
2018-03-01T09:28:28.446Z,88.60
2018-03-01T09:29:28.487Z,89.12
2018-03-01T09:30:28.536Z,88.75
2018-03-01T09:31:28.601Z,88.56
2018-03-01T09:32:28.604Z,88.28
2018-03-01T09:33:28.638Z,88.37
2018-03-01T09:34:28.673Z,87.80
2018-03-01T09:35:28.713Z,88.93
2018-03-01T09:36:28.782Z,89.31
2018-03-01T09:37:28.795Z,88.37
2018-03-01T09:38:28.825Z,86.95
2018-03-01T09:39:28.863Z,86.86
2018-03-01T09:40:28.902Z,87.52
2018-03-01T09:41:29.141Z,87.99
2018-03-01T09:42:28.976Z,87.62
2018-03-01T09:43:29.014Z,87.24
2018-03-01T09:44:29.051Z,87.14
2018-03-01T09:45:29.089Z,86.95
2018-03-01T09:46:29.126Z,86.48
2018-03-01T09:47:29.197Z,86.95
2018-03-01T09:48:29.203Z,86.76
2018-03-01T09:49:29.241Z,87.80
2018-03-01T09:50:29.277Z,87.90
2018-03-01T09:51:29.316Z,87.24
2018-03-01T09:52:29.373Z,87.99
2018-03-01T09:53:29.392Z,86.95
2018-03-01T09:54:29.429Z,87.62
2018-03-01T09:55:29.473Z,87.52
2018-03-01T09:56:29.506Z,87.43
2018-03-01T09:57:29.561Z,86.95
2018-03-01T09:58:29.581Z,87.80
2018-03-01T09:59:29.616Z,87.80
2018-03-01T10:00:29.666Z,87.80
2018-03-01T10:01:29.703Z,86.19
2018-03-01T10:02:29.748Z,85.91
2018-03-01T10:03:29.773Z,86.48
2018-03-01T10:04:29.810Z,86.48
2018-03-01T10:05:29.868Z,86.67
2018-03-01T10:06:29.885Z,86.19
2018-03-01T10:07:29.926Z,84.97
2018-03-01T10:08:29.962Z,84.69
2018-03-01T10:09:30.003Z,85.01
2018-03-01T10:10:30.058Z,84.82
2018-03-01T10:11:30.093Z,85.30
2018-03-01T10:12:30.118Z,84.26
2018-03-01T10:13:30.176Z,84.73
2018-03-01T10:14:30.192Z,83.69
2018-03-01T10:15:30.235Z,83.40
2018-03-01T10:16:30.288Z,83.22
2018-03-01T10:17:30.309Z,84.26
2018-03-01T10:18:30.365Z,84.54
2018-03-01T10:19:30.387Z,83.69
2018-03-01T10:20:30.428Z,83.78
2018-03-01T10:21:41.676Z,83.50
2018-03-01T10:22:30.502Z,84.07
2018-03-01T10:23:30.547Z,83.40
2018-03-01T10:24:30.586Z,82.84
2018-03-01T10:25:30.623Z,82.28
2018-03-01T10:26:30.658Z,80.95
2018-03-01T10:27:30.714Z,80.19
2018-03-01T10:28:30.737Z,80.29
2018-03-01T10:29:30.781Z,80.38
2018-03-01T10:30:30.834Z,80.95
2018-03-01T10:31:30.854Z,82.12
2018-03-01T10:32:30.911Z,82.12
2018-03-01T10:33:30.936Z,80.99
2018-03-01T10:34:30.973Z,80.24
2018-03-01T10:35:31.038Z,80.33
2018-03-01T10:36:31.053Z,79.95
2018-03-01T10:37:31.100Z,78.58
2018-03-01T10:38:31.131Z,77.53
2018-03-01T10:39:31.193Z,76.87
2018-03-01T10:40:31.216Z,76.02
2018-03-01T10:41:31.274Z,76.87
2018-03-01T10:42:31.295Z,76.97
2018-03-01T10:43:31.334Z,77.82
2018-03-01T10:44:31.389Z,77.25
2018-03-01T10:45:31.416Z,76.97
2018-03-01T10:46:31.457Z,77.72
2018-03-01T10:47:31.507Z,77.82
2018-03-01T10:48:31.538Z,77.44
2018-03-01T10:49:31.596Z,77.53
2018-03-01T10:50:31.622Z,77.34
2018-03-01T10:51:31.660Z,77.91
2018-03-01T10:52:31.718Z,76.78
2018-03-01T10:53:31.744Z,76.50
2018-03-01T10:54:31.801Z,76.55
2018-03-01T10:55:31.826Z,76.64
2018-03-01T10:56:31.865Z,76.83
2018-03-01T10:57:31.910Z,76.83
2018-03-01T10:58:31.949Z,77.12
2018-03-01T10:59:32.072Z,77.50
2018-03-01T11:00:32.029Z,77.40
2018-03-01T11:01:32.074Z,77.50
2018-03-01T11:02:32.110Z,77.40
2018-03-01T11:03:32.153Z,77.69
2018-03-01T11:04:32.216Z,77.40
2018-03-01T11:05:32.238Z,77.69
2018-03-01T11:06:32.294Z,77.78
2018-03-01T11:07:32.321Z,77.50
2018-03-01T11:08:32.358Z,77.50
2018-03-01T11:09:32.414Z,77.50
2018-03-01T11:10:32.444Z,77.97
2018-03-01T11:11:32.480Z,77.97
2018-03-01T11:12:32.519Z,77.78
2018-03-01T11:13:32.567Z,77.31
2018-03-01T11:14:32.617Z,77.50
2018-03-01T11:15:32.642Z,77.97
2018-03-01T11:16:32.680Z,77.40
2018-03-01T11:17:32.720Z,77.12
2018-03-01T11:18:32.761Z,78.25
2018-03-01T11:19:32.818Z,79.10
2018-03-01T11:20:32.842Z,79.76
2018-03-01T11:21:32.882Z,78.91
2018-03-01T11:22:32.922Z,78.63
2018-03-01T11:23:32.962Z,77.97
2018-03-01T11:24:33.019Z,77.78
2018-03-01T11:25:33.061Z,78.44
2018-03-01T11:26:33.093Z,78.72
2018-03-01T11:27:33.123Z,78.91
2018-03-01T11:28:33.166Z,77.87
2018-03-01T11:29:33.226Z,78.53
2018-03-01T11:30:33.244Z,78.25
2018-03-01T11:31:33.299Z,77.97
2018-03-01T11:32:33.326Z,77.97
2018-03-01T11:33:33.366Z,77.50
2018-03-01T11:34:33.405Z,77.40
2018-03-01T11:35:33.444Z,77.40
2018-03-01T11:36:33.502Z,77.69
2018-03-01T11:37:33.526Z,78.06
2018-03-01T11:38:33.563Z,77.69
2018-03-01T11:39:33.604Z,77.50
2018-03-01T11:40:33.668Z,76.64
2018-03-01T11:41:33.744Z,76.68
2018-03-01T11:42:33.725Z,76.68
2018-03-01T11:43:33.764Z,76.59
2018-03-01T11:44:33.817Z,77.21
2018-03-01T11:45:33.868Z,76.74
2018-03-01T11:46:33.893Z,77.12
2018-03-01T11:47:33.932Z,77.59
2018-03-01T11:48:33.998Z,77.50
2018-03-01T11:49:34.006Z,77.78
2018-03-01T11:50:34.049Z,78.25
2018-03-01T11:51:34.088Z,78.72
2018-03-01T11:52:34.144Z,78.63
2018-03-01T11:53:34.182Z,78.63
2018-03-01T11:54:34.207Z,78.72
2018-03-01T11:55:34.244Z,79.48
2018-03-01T11:56:34.287Z,79.76
2018-03-01T11:57:34.324Z,79.67
2018-03-01T11:58:34.381Z,79.86
2018-03-01T11:59:34.404Z,80.24
2018-03-01T12:00:34.445Z,80.33
2018-03-01T12:01:34.484Z,80.43
2018-03-01T12:02:34.522Z,79.57
2018-03-01T12:03:34.581Z,79.48
2018-03-01T12:04:34.603Z,79.10
2018-03-01T12:05:34.645Z,79.10
2018-03-01T12:06:34.682Z,79.10
2018-03-01T12:07:34.723Z,79.57
2018-03-01T12:08:34.778Z,79.76
2018-03-01T12:09:34.826Z,78.91
2018-03-01T12:10:34.842Z,78.91
2018-03-01T12:11:34.880Z,77.97
2018-03-01T12:12:34.918Z,78.16
2018-03-01T12:13:34.959Z,77.69
2018-03-01T12:14:35.016Z,78.06
2018-03-01T12:15:35.044Z,77.97
2018-03-01T12:16:35.078Z,76.55
2018-03-01T12:17:35.119Z,76.74
2018-03-01T12:18:35.158Z,76.17
2018-03-01T12:19:35.216Z,76.31
2018-03-01T12:20:35.238Z,75.36
2018-03-01T12:21:35.281Z,74.88
2018-03-01T12:22:35.316Z,74.13
2018-03-01T12:23:35.357Z,73.32
2018-03-01T12:24:35.415Z,73.13
2018-03-01T12:25:35.441Z,72.47
2018-03-01T12:26:35.481Z,72.18
2018-03-01T12:27:35.522Z,71.61
2018-03-01T12:28:35.562Z,70.48
2018-03-01T12:29:35.620Z,69.82
2018-03-01T12:30:35.646Z,69.28
2018-03-01T12:31:35.688Z,69.53
2018-03-01T12:32:35.728Z,69.63
2018-03-01T12:33:35.770Z,69.66
2018-03-01T12:34:35.829Z,69.19
2018-03-01T12:35:35.856Z,68.90
2018-03-01T12:36:35.895Z,68.52
2018-03-01T12:37:35.944Z,68.12
2018-03-01T12:38:35.990Z,68.49
2018-03-01T12:39:36.042Z,68.30
2018-03-01T12:40:36.630Z,68.77
2018-03-01T12:41:36.633Z,68.68
2018-03-01T12:42:36.155Z,69.06
2018-03-01T12:43:36.196Z,69.78
2018-03-01T12:44:36.239Z,69.97
2018-03-01T12:45:36.301Z,70.16
2018-03-01T12:46:36.326Z,70.54
2018-03-01T12:47:36.367Z,71.39
2018-03-01T12:48:36.411Z,71.95
2018-03-01T12:49:36.458Z,71.11
2018-03-01T12:50:36.514Z,71.67
2018-03-01T12:51:36.540Z,71.39
2018-03-01T12:52:36.584Z,71.48